Kypros Bravery — 5BET4 — position and weather

sailwx.info

Track history (hours):
 
Tides and Currents Weather Stations Pressure Air Temp Water Temp Dewpoint Dewpoint Depression Visibility Wind Speed Wind Dir Waves Ship Positions

Kypros Bravery

Last reported at 2017-Sep-13 10:15 UTC. Time now 2017-Sep-24 10:41 UTC.
Position N 34°05' W 015°53'.
Warning: this ship's position is 11 days out of date.

Length 225 m; draft 7.8 m.

Type: Cargo ship. MMSI: 212498000.

Date/timePositionNaut miles runAvg speedWind from/ knotsBaromVisibWave heightAir tempDewpointWater temp
2017-Sep-13 10:15N 34°05' W 015°53'2511.4
2017-Sep-13 08:03N 34°11' W 015°23'211.8
2017-Sep-13 07:55N 34°11' W 015°21'811.4
2017-Sep-13 07:14N 34°13' W 015°12'711.5
2017-Sep-13 06:36N 34°14' W 015°03'411.3
2017-Sep-13 06:16N 34°15' W 014°59'511.6
2017-Sep-13 05:52N 34°16' W 014°54'11011.4
2017-Sep-12 20:17N 34°42' W 012°44'411.5
2017-Sep-12 19:59N 34°43' W 012°40'7911.7
2017-Sep-12 13:14N 35°01' W 011°06'311.4
2017-Sep-12 13:00N 35°01' W 011°03'611.9
2017-Sep-12 12:28N 35°03' W 010°56'8311.7
2017-Sep-12 05:24N 35°22' W 009°17'511.4
2017-Sep-12 04:59N 35°23' W 009°11'511.6
2017-Sep-12 04:30N 35°24' W 009°05'611.8
2017-Sep-12 03:58N 35°26' W 008°57'611.7
2017-Sep-12 03:27N 35°28' W 008°50'812.2
2017-Sep-12 02:47N 35°29' W 008°40'412.6
2017-Sep-12 02:27N 35°30' W 008°35'612.5
2017-Sep-12 02:00N 35°31' W 008°28'612.4
2017-Sep-12 01:30N 35°33' W 008°21'612.4
2017-Sep-12 01:00N 35°34' W 008°14'612.3
2017-Sep-12 00:30N 35°36' W 008°06'612.2
2017-Sep-12 00:00N 35°37' W 007°59'612.6
2017-Sep-11 23:30N 35°39' W 007°51'612.5
2017-Sep-11 23:00N 35°40' W 007°44'2312.5
2017-Sep-11 21:10N 35°45' W 007°16'212.5
2017-Sep-11 21:00N 35°46' W 007°14'8111.6
2017-Sep-11 14:02N 35°58' W 005°36'010.7
2017-Sep-11 14:00N 35°58' W 005°35'510.2
2017-Sep-11 13:30N 35°60' W 005°29'4 9.0
2017-Sep-11 13:00N 36°01' W 005°24'5 9.1
2017-Sep-11 12:30N 36°05' W 005°20'2 3.1
2017-Sep-11 12:00N 36°06' W 005°19'1 1.8
2017-Sep-11 11:30N 36°06' W 005°18'2 3.5
2017-Sep-11 11:00N 36°06' W 005°16'21111.0
2017-Sep-10 15:51N 37°12' W 001°06'611.2
2017-Sep-10 15:20N 37°16' W 001°00'411.3
2017-Sep-10 14:58N 37°18' W 000°56'1211.9
2017-Sep-10 14:00N 37°26' W 000°45'612.3
2017-Sep-10 13:30N 37°30' W 000°40'612.5
2017-Sep-10 13:00N 37°34' W 000°34'612.6
2017-Sep-10 12:30N 37°39' W 000°29'12811.5
2017-Sep-10 01:25N 39°16' E 001°17'611.0
2017-Sep-10 00:50N 39°20' E 001°23'411.3
2017-Sep-10 00:27N 39°23' E 001°28'511.3
2017-Sep-10 00:00N 39°26' E 001°33'611.4
2017-Sep-09 23:30N 39°30' E 001°39'611.8
2017-Sep-09 23:00N 39°33' E 001°45'611.8
2017-Sep-09 22:30N 39°37' E 001°51'611.6
2017-Sep-09 22:00N 39°41' E 001°57'611.6
2017-Sep-09 21:30N 39°44' E 002°02'611.7
2017-Sep-09 21:00N 39°48' E 002°08'611.9
2017-Sep-09 20:30N 39°52' E 002°14'611.9
2017-Sep-09 20:00N 39°55' E 002°21'612.1
2017-Sep-09 19:30N 39°59' E 002°27'612.2
2017-Sep-09 19:00N 40°03' E 002°33'612.2
2017-Sep-09 18:30N 40°06' E 002°39'612.5
2017-Sep-09 18:00N 40°10' E 002°46'612.7
2017-Sep-09 17:30N 40°14' E 002°52'612.7
2017-Sep-09 17:00N 40°18' E 002°59'612.7
2017-Sep-09 16:30N 40°22' E 003°05'612.7
2017-Sep-09 16:00N 40°26' E 003°12'612.6
2017-Sep-09 15:30N 40°30' E 003°19'612.6
2017-Sep-09 15:00N 40°34' E 003°25'12211.6
2017-Sep-09 04:26N 41°45' E 005°37'11411.5
2017-Sep-08 18:31N 42°52' E 007°42'011.0
2017-Sep-08 18:30N 42°52' E 007°42'710.8
2017-Sep-08 17:53N 42°56' E 007°49'411.1
2017-Sep-08 17:29N 42°59' E 007°54'711.4
2017-Sep-08 16:53N 43°03' E 008°02'611.3
2017-Sep-08 16:23N 43°06' E 008°08'511.1
2017-Sep-08 15:56N 43°09' E 008°13'611.3
2017-Sep-08 15:25N 43°13' E 008°20'511.3
2017-Sep-08 15:00N 43°15' E 008°25'611.4
2017-Sep-08 14:30N 43°19' E 008°31'611.4
2017-Sep-08 14:00N 43°22' E 008°38'611.2
2017-Sep-08 13:30N 43°25' E 008°44'611.4
2017-Sep-08 13:00N 43°29' E 008°50'611.5
2017-Sep-08 12:30N 43°32' E 008°57'611.6
2017-Sep-08 12:00N 43°35' E 009°03'611.9
2017-Sep-08 11:30N 43°39' E 009°10'611.6
2017-Sep-08 11:00N 43°43' E 009°16'611.3
2017-Sep-08 10:30N 43°46' E 009°23'611.6
2017-Sep-08 10:00N 43°49' E 009°29'611.4
2017-Sep-08 09:27N 43°53' E 009°36'511.3
2017-Sep-08 09:00N 43°56' E 009°42'611.2
2017-Sep-08 08:30N 43°59' E 009°48'5 9.8
2017-Sep-08 08:00N 44°03' E 009°52'3 6.0
2017-Sep-08 07:30N 44°06' E 009°51'0 0.9
2017-Sep-08 07:00N 44°06' E 009°51'0 0.0
2017-Sep-08 06:30N 44°06' E 009°51'0 0.0
2017-Sep-08 06:00N 44°06' E 009°51'0 0.0
2017-Sep-08 05:30N 44°06' E 009°51'0 0.0
2017-Sep-08 05:00N 44°06' E 009°51'0 0.0
2017-Sep-08 04:30N 44°06' E 009°51'0 0.0
2017-Sep-08 04:00N 44°06' E 009°51'0 0.0
2017-Sep-08 03:30N 44°06' E 009°51'0 0.0
2017-Sep-08 03:00N 44°06' E 009°51'0 0.0
2017-Sep-08 02:30N 44°06' E 009°51'0 0.0
2017-Sep-08 01:57N 44°06' E 009°51'0 0.0
2017-Sep-08 01:27N 44°06' E 009°51'0 0.0
2017-Sep-08 00:57N 44°06' E 009°51'0 0.0
2017-Sep-08 00:30N 44°06' E 009°51'0 0.0
2017-Sep-08 00:00N 44°06' E 009°51'0 0.0
2017-Sep-07 23:30N 44°06' E 009°51'0 0.0
2017-Sep-07 23:00N 44°06' E 009°51'0 0.0
2017-Sep-07 22:27N 44°06' E 009°51'0 0.0
2017-Sep-07 22:00N 44°06' E 009°51'0 0.0
2017-Sep-07 21:30N 44°06' E 009°51'0 0.0
2017-Sep-07 21:00N 44°06' E 009°51'0 0.0
2017-Sep-07 20:27N 44°06' E 009°51'0 0.0
2017-Sep-07 20:00N 44°06' E 009°51'0 0.0
2017-Sep-07 19:30N 44°06' E 009°51'0 0.0
2017-Sep-07 19:00N 44°06' E 009°51'0 0.0
2017-Sep-07 18:30N 44°06' E 009°51'0 0.0
2017-Sep-07 18:00N 44°06' E 009°51'0 0.0
2017-Sep-07 17:30N 44°06' E 009°51'0 0.0
2017-Sep-07 17:00N 44°06' E 009°51'0 0.0
2017-Sep-07 16:30N 44°06' E 009°51'0 0.0
2017-Sep-07 16:00N 44°06' E 009°51'0 0.0
2017-Sep-07 15:30N 44°06' E 009°51'0 0.0
2017-Sep-07 15:00N 44°06' E 009°51'0 0.0
2017-Sep-07 14:30N 44°06' E 009°51'0 0.0
2017-Sep-07 14:00N 44°06' E 009°51'0 0.0
2017-Sep-07 13:30N 44°06' E 009°51'0 0.0
2017-Sep-07 13:00N 44°06' E 009°51'0 0.0
2017-Sep-07 12:30N 44°06' E 009°51'0 0.0
2017-Sep-07 12:00N 44°06' E 009°51'0 0.0
2017-Sep-07 11:30N 44°06' E 009°51'0 0.0
2017-Sep-07 11:00N 44°06' E 009°51'0 0.0
2017-Sep-07 10:30N 44°06' E 009°51'0 0.0
2017-Sep-07 10:00N 44°06' E 009°51'0 0.0
2017-Sep-07 09:24N 44°06' E 009°51'0 0.0
2017-Sep-07 09:00N 44°06' E 009°51'0 0.0
2017-Sep-07 08:30N 44°06' E 009°51'0 0.0
2017-Sep-07 08:00N 44°06' E 009°51'0 0.0
2017-Sep-07 07:30N 44°06' E 009°51'0 0.0
2017-Sep-07 07:00N 44°06' E 009°51'0 0.0
2017-Sep-07 06:30N 44°06' E 009°51'0 0.0
2017-Sep-07 06:00N 44°06' E 009°51'0 0.0
2017-Sep-07 05:30N 44°06' E 009°51'0 0.0
2017-Sep-07 05:00N 44°06' E 009°51'0 0.0
2017-Sep-07 04:30N 44°06' E 009°51'0 0.0
2017-Sep-07 04:00N 44°06' E 009°51'0 0.0
2017-Sep-07 03:27N 44°06' E 009°51'0 0.0
2017-Sep-07 03:00N 44°06' E 009°51'0 0.0
2017-Sep-07 02:30N 44°06' E 009°51'0 0.0
2017-Sep-07 02:00N 44°06' E 009°51'0 0.0
2017-Sep-07 01:30N 44°06' E 009°51'0 0.0
2017-Sep-07 01:00N 44°06' E 009°51'0 0.0
2017-Sep-07 00:30N 44°06' E 009°51'0 0.0
2017-Sep-06 23:57N 44°06' E 009°51'0 0.0
2017-Sep-06 23:30N 44°06' E 009°51'0 0.0
2017-Sep-06 23:00N 44°06' E 009°51'0 0.0
2017-Sep-06 22:30N 44°06' E 009°51'0 0.0
2017-Sep-06 21:57N 44°06' E 009°51'0 0.0
2017-Sep-06 21:30N 44°06' E 009°51'0 0.0
2017-Sep-06 21:00N 44°06' E 009°51'0 0.0
2017-Sep-06 20:27N 44°06' E 009°51'0 0.0
2017-Sep-06 20:00N 44°06' E 009°51'0 0.0
2017-Sep-06 19:27N 44°06' E 009°51'0 0.0
2017-Sep-06 19:00N 44°06' E 009°51'0 0.0
2017-Sep-06 18:30N 44°06' E 009°51'0 0.0
2017-Sep-06 17:57N 44°06' E 009°51'0 0.0
2017-Sep-06 17:30N 44°06' E 009°51'0 0.0
2017-Sep-06 17:00N 44°06' E 009°51'0 0.0
2017-Sep-06 16:30N 44°06' E 009°51'0 0.0
2017-Sep-06 15:54N 44°06' E 009°51'0 0.0
2017-Sep-06 15:27N 44°06' E 009°51'0 0.0
2017-Sep-06 15:00N 44°06' E 009°51'0 0.0
2017-Sep-06 14:30N 44°06' E 009°51'0 0.0
2017-Sep-06 14:00N 44°06' E 009°51'0 0.0
2017-Sep-06 13:30N 44°06' E 009°51'0 0.0
2017-Sep-06 13:00N 44°06' E 009°51'0 0.0
2017-Sep-06 12:30N 44°06' E 009°51'0 0.0
2017-Sep-06 12:00N 44°06' E 009°51'0 0.0
2017-Sep-06 11:30N 44°06' E 009°51'0 0.0
2017-Sep-06 11:00N 44°06' E 009°51'0 0.0
2017-Sep-06 10:27N 44°06' E 009°51'0 0.0
2017-Sep-06 09:54N 44°06' E 009°51'0 0.0
2017-Sep-06 09:30N 44°06' E 009°51'0 0.0
2017-Sep-06 09:00N 44°06' E 009°51'0 0.0
2017-Sep-06 08:30N 44°06' E 009°51'0 0.0
2017-Sep-06 07:57N 44°06' E 009°51'0 0.0
2017-Sep-06 07:30N 44°06' E 009°51'0 0.0
2017-Sep-06 07:00N 44°06' E 009°51'0 0.0
2017-Sep-06 06:27N 44°06' E 009°51'0 0.0
2017-Sep-06 06:00N 44°06' E 009°51'0 0.0
2017-Sep-06 05:30N 44°06' E 009°51'0 0.0
2017-Sep-06 05:00N 44°06' E 009°51'0 0.0
2017-Sep-06 04:30N 44°06' E 009°51'0 0.0
2017-Sep-06 04:00N 44°06' E 009°51'0 0.0
2017-Sep-06 03:30N 44°06' E 009°51'0 0.0
2017-Sep-06 03:00N 44°06' E 009°51'0 0.0
2017-Sep-06 02:30N 44°06' E 009°51'0 0.0
2017-Sep-06 02:00N 44°06' E 009°51'0 0.0
2017-Sep-06 01:30N 44°06' E 009°51'0 0.0
2017-Sep-06 01:00N 44°06' E 009°51'0 0.0
2017-Sep-06 00:30N 44°06' E 009°51'0 0.0
2017-Sep-05 23:57N 44°06' E 009°51'0 0.0
2017-Sep-05 23:27N 44°06' E 009°51'0 0.0
2017-Sep-05 23:00N 44°06' E 009°51'0 0.0
2017-Sep-05 22:30N 44°06' E 009°51'0 0.0
2017-Sep-05 22:00N 44°06' E 009°51'0 0.0
2017-Sep-05 21:30N 44°06' E 009°51'0 0.0
2017-Sep-05 21:00N 44°06' E 009°51'0 0.0
2017-Sep-05 20:30N 44°06' E 009°51'0 0.0
2017-Sep-05 20:00N 44°06' E 009°51'0 0.0
2017-Sep-05 19:30N 44°06' E 009°51'0 0.0
2017-Sep-05 19:00N 44°06' E 009°51'0 0.0
2017-Sep-05 18:24N 44°06' E 009°51'0 0.0
2017-Sep-05 18:00N 44°06' E 009°51'0 0.0
2017-Sep-05 17:30N 44°06' E 009°51'0 0.0
2017-Sep-05 17:00N 44°06' E 009°51'0 0.0
2017-Sep-05 16:27N 44°06' E 009°51'0 0.0
2017-Sep-05 16:00N 44°06' E 009°51'0 0.0
2017-Sep-05 15:30N 44°06' E 009°51'0 0.0
2017-Sep-05 15:00N 44°06' E 009°51'0 0.0
2017-Sep-05 14:27N 44°06' E 009°51'0 0.0
2017-Sep-05 14:00N 44°06' E 009°51'0 0.0
2017-Sep-05 13:30N 44°06' E 009°51'0 0.0
2017-Sep-05 12:57N 44°06' E 009°51'0 0.0
2017-Sep-05 12:30N 44°06' E 009°51'0 0.0
2017-Sep-05 12:00N 44°06' E 009°51'0 0.0
2017-Sep-05 11:30N 44°06' E 009°51'0 0.0
2017-Sep-05 11:00N 44°06' E 009°51'0 0.0
2017-Sep-05 10:30N 44°06' E 009°51'0 0.0
2017-Sep-05 10:00N 44°06' E 009°51'0 0.0
2017-Sep-05 09:30N 44°06' E 009°51'0 0.0
2017-Sep-05 09:00N 44°06' E 009°51'0 0.0
2017-Sep-05 08:30N 44°06' E 009°51'0 0.0
2017-Sep-05 08:00N 44°06' E 009°51'0 0.0
2017-Sep-05 07:27N 44°06' E 009°51'0 0.0
2017-Sep-05 07:00N 44°06' E 009°51'0 0.0
2017-Sep-05 06:30N 44°06' E 009°51'0 0.0
2017-Sep-05 06:00N 44°06' E 009°51'0 0.0
2017-Sep-05 05:30N 44°06' E 009°51'0 0.0
2017-Sep-05 05:00N 44°06' E 009°51'0 0.0
2017-Sep-05 04:30N 44°06' E 009°51'0 0.0
2017-Sep-05 04:00N 44°06' E 009°51'0 0.0
2017-Sep-05 03:30N 44°06' E 009°51'0 0.0
2017-Sep-05 03:00N 44°06' E 009°51'0 0.0
2017-Sep-05 02:30N 44°06' E 009°51'0 0.0
2017-Sep-05 02:00N 44°06' E 009°51'0 0.0
2017-Sep-05 01:30N 44°06' E 009°51'0 0.0
2017-Sep-05 01:00N 44°06' E 009°51'0 0.0
2017-Sep-05 00:30N 44°06' E 009°51'0 0.0
2017-Sep-05 00:00N 44°06' E 009°51'0 0.0
2017-Sep-04 23:30N 44°06' E 009°51'0 0.0
2017-Sep-04 23:00N 44°06' E 009°51'0 0.0
2017-Sep-04 22:30N 44°06' E 009°51'0 0.0
2017-Sep-04 22:00N 44°06' E 009°51'0 0.0
2017-Sep-04 21:30N 44°06' E 009°51'0 0.0
2017-Sep-04 21:00N 44°06' E 009°51'0 0.0
2017-Sep-04 20:30N 44°06' E 009°51'0 0.0
2017-Sep-04 20:00N 44°06' E 009°51'0 0.0
2017-Sep-04 19:30N 44°06' E 009°51'0 0.0
2017-Sep-04 19:00N 44°06' E 009°51'0 0.0
2017-Sep-04 18:30N 44°06' E 009°51'0 0.0
2017-Sep-04 18:00N 44°06' E 009°51'0 0.0
2017-Sep-04 17:30N 44°06' E 009°51'0 0.0
2017-Sep-04 17:00N 44°06' E 009°51'0 0.0
2017-Sep-04 16:30N 44°06' E 009°51'0 0.0
2017-Sep-04 16:00N 44°06' E 009°51'0 0.0
2017-Sep-04 15:30N 44°06' E 009°51'0 0.0
2017-Sep-04 15:00N 44°06' E 009°51'0 0.0
2017-Sep-04 14:30N 44°06' E 009°51'0 0.0
2017-Sep-04 14:00N 44°06' E 009°51'0 0.0
2017-Sep-04 13:30N 44°06' E 009°51'0 0.0
2017-Sep-04 12:54N 44°06' E 009°51'0 0.0
2017-Sep-04 12:30N 44°06' E 009°51'0 0.0
2017-Sep-04 12:00N 44°06' E 009°51'0 0.0
2017-Sep-04 11:30N 44°06' E 009°51'0 0.0
2017-Sep-04 11:00N 44°06' E 009°51'0 0.0
2017-Sep-04 10:30N 44°06' E 009°51'0 0.0
2017-Sep-04 10:00N 44°06' E 009°51'0 0.0
2017-Sep-04 09:30N 44°06' E 009°51'0 0.0
2017-Sep-04 09:00N 44°06' E 009°51'0 0.0
2017-Sep-04 08:30N 44°06' E 009°51'0 0.0
2017-Sep-04 08:00N 44°06' E 009°51'0 0.0
2017-Sep-04 07:27N 44°06' E 009°51'0 0.0
2017-Sep-04 06:57N 44°06' E 009°51'0 0.0
2017-Sep-04 06:30N 44°06' E 009°51'0 0.0
2017-Sep-04 06:00N 44°06' E 009°51'0 0.0
2017-Sep-04 05:30N 44°06' E 009°51'0 0.0
2017-Sep-04 05:00N 44°06' E 009°51'0 0.0
2017-Sep-04 04:30N 44°06' E 009°51'0 0.0
2017-Sep-04 04:00N 44°06' E 009°51'0 0.0
2017-Sep-04 03:30N 44°06' E 009°51'0 0.0
2017-Sep-04 03:00N 44°06' E 009°51'0 0.0
2017-Sep-04 02:30N 44°06' E 009°51'0 0.0
2017-Sep-04 02:00N 44°06' E 009°51'0 0.0
2017-Sep-04 01:30N 44°06' E 009°51'0 0.0
2017-Sep-04 01:00N 44°06' E 009°51'0 0.0
2017-Sep-04 00:30N 44°06' E 009°51'0 0.0
2017-Sep-04 00:00N 44°06' E 009°51'0 0.0
2017-Sep-03 23:30N 44°06' E 009°51'0 0.0
2017-Sep-03 22:54N 44°06' E 009°51'0 0.0
2017-Sep-03 22:30N 44°06' E 009°51'0 0.0
2017-Sep-03 22:00N 44°06' E 009°51'0 0.0
2017-Sep-03 21:30N 44°06' E 009°51'0 0.0
2017-Sep-03 21:00N 44°06' E 009°51'0 0.0
2017-Sep-03 20:27N 44°06' E 009°51'0 0.0
2017-Sep-03 19:57N 44°06' E 009°51'0 0.0
2017-Sep-03 19:30N 44°06' E 009°51'0 0.0
2017-Sep-03 19:00N 44°06' E 009°51'0 0.0
2017-Sep-03 18:30N 44°06' E 009°51'0 0.0
2017-Sep-03 18:00N 44°06' E 009°51'0 0.0
2017-Sep-03 17:30N 44°06' E 009°51'0 0.0
2017-Sep-03 17:00N 44°06' E 009°51'0 0.0
2017-Sep-03 16:30N 44°06' E 009°51'0 0.0
2017-Sep-03 16:00N 44°06' E 009°51'0 0.0
2017-Sep-03 15:30N 44°06' E 009°51'0 0.0
2017-Sep-03 15:00N 44°06' E 009°51'0 0.0
2017-Sep-03 14:00N 44°06' E 009°51'0 0.0
2017-Sep-03 13:30N 44°06' E 009°51'0 0.0
2017-Sep-03 13:00N 44°06' E 009°51'0 0.0
2017-Sep-03 12:27N 44°06' E 009°51'0 0.0
2017-Sep-03 12:00N 44°06' E 009°51'0 0.0
2017-Sep-03 11:27N 44°06' E 009°51'0 0.0
2017-Sep-03 11:00N 44°06' E 009°51'0 0.0
2017-Sep-03 10:30N 44°06' E 009°51'  
Track history (hours):
 
Tides and Currents Weather Stations Pressure Air Temp Water Temp Dewpoint Dewpoint Depression Visibility Wind Speed Wind Dir Waves Ship Positions

Kypros Bravery

Last reported at 2017-Sep-13 10:15 UTC. Time now 2017-Sep-24 10:41 UTC.
Position N 34°05' W 015°53'.
Warning: this ship's position is 11 days out of date.

Length 225 m; draft 7.8 m.

Type: Cargo ship. MMSI: 212498000.

Date/timePositionNaut miles runAvg speedWind from/ knotsBaromVisibWave heightAir tempDewpointWater temp
2017-Sep-13 10:15N 34°05' W 015°53'2511.4
2017-Sep-13 08:03N 34°11' W 015°23'211.8
2017-Sep-13 07:55N 34°11' W 015°21'811.4
2017-Sep-13 07:14N 34°13' W 015°12'711.5
2017-Sep-13 06:36N 34°14' W 015°03'411.3
2017-Sep-13 06:16N 34°15' W 014°59'511.6
2017-Sep-13 05:52N 34°16' W 014°54'11011.4
2017-Sep-12 20:17N 34°42' W 012°44'411.5
2017-Sep-12 19:59N 34°43' W 012°40'7911.7
2017-Sep-12 13:14N 35°01' W 011°06'311.4
2017-Sep-12 13:00N 35°01' W 011°03'611.9
2017-Sep-12 12:28N 35°03' W 010°56'8311.7
2017-Sep-12 05:24N 35°22' W 009°17'511.4
2017-Sep-12 04:59N 35°23' W 009°11'511.6
2017-Sep-12 04:30N 35°24' W 009°05'611.8
2017-Sep-12 03:58N 35°26' W 008°57'611.7
2017-Sep-12 03:27N 35°28' W 008°50'812.2
2017-Sep-12 02:47N 35°29' W 008°40'412.6
2017-Sep-12 02:27N 35°30' W 008°35'612.5
2017-Sep-12 02:00N 35°31' W 008°28'612.4
2017-Sep-12 01:30N 35°33' W 008°21'612.4
2017-Sep-12 01:00N 35°34' W 008°14'612.3
2017-Sep-12 00:30N 35°36' W 008°06'612.2
2017-Sep-12 00:00N 35°37' W 007°59'612.6
2017-Sep-11 23:30N 35°39' W 007°51'612.5
2017-Sep-11 23:00N 35°40' W 007°44'2312.5
2017-Sep-11 21:10N 35°45' W 007°16'212.5
2017-Sep-11 21:00N 35°46' W 007°14'8111.6
2017-Sep-11 14:02N 35°58' W 005°36'010.7
2017-Sep-11 14:00N 35°58' W 005°35'510.2
2017-Sep-11 13:30N 35°60' W 005°29'4 9.0
2017-Sep-11 13:00N 36°01' W 005°24'5 9.1
2017-Sep-11 12:30N 36°05' W 005°20'2 3.1
2017-Sep-11 12:00N 36°06' W 005°19'1 1.8
2017-Sep-11 11:30N 36°06' W 005°18'2 3.5
2017-Sep-11 11:00N 36°06' W 005°16'21111.0
2017-Sep-10 15:51N 37°12' W 001°06'611.2
2017-Sep-10 15:20N 37°16' W 001°00'411.3
2017-Sep-10 14:58N 37°18' W 000°56'1211.9
2017-Sep-10 14:00N 37°26' W 000°45'612.3
2017-Sep-10 13:30N 37°30' W 000°40'612.5
2017-Sep-10 13:00N 37°34' W 000°34'612.6
2017-Sep-10 12:30N 37°39' W 000°29'12811.5
2017-Sep-10 01:25N 39°16' E 001°17'611.0
2017-Sep-10 00:50N 39°20' E 001°23'411.3
2017-Sep-10 00:27N 39°23' E 001°28'511.3
2017-Sep-10 00:00N 39°26' E 001°33'611.4
2017-Sep-09 23:30N 39°30' E 001°39'611.8
2017-Sep-09 23:00N 39°33' E 001°45'611.8
2017-Sep-09 22:30N 39°37' E 001°51'611.6
2017-Sep-09 22:00N 39°41' E 001°57'611.6
2017-Sep-09 21:30N 39°44' E 002°02'611.7
2017-Sep-09 21:00N 39°48' E 002°08'611.9
2017-Sep-09 20:30N 39°52' E 002°14'611.9
2017-Sep-09 20:00N 39°55' E 002°21'612.1
2017-Sep-09 19:30N 39°59' E 002°27'612.2
2017-Sep-09 19:00N 40°03' E 002°33'612.2
2017-Sep-09 18:30N 40°06' E 002°39'612.5
2017-Sep-09 18:00N 40°10' E 002°46'612.7
2017-Sep-09 17:30N 40°14' E 002°52'612.7
2017-Sep-09 17:00N 40°18' E 002°59'612.7
2017-Sep-09 16:30N 40°22' E 003°05'612.7
2017-Sep-09 16:00N 40°26' E 003°12'612.6
2017-Sep-09 15:30N 40°30' E 003°19'612.6
2017-Sep-09 15:00N 40°34' E 003°25'12211.6
2017-Sep-09 04:26N 41°45' E 005°37'11411.5
2017-Sep-08 18:31N 42°52' E 007°42'011.0
2017-Sep-08 18:30N 42°52' E 007°42'710.8
2017-Sep-08 17:53N 42°56' E 007°49'411.1
2017-Sep-08 17:29N 42°59' E 007°54'711.4
2017-Sep-08 16:53N 43°03' E 008°02'611.3
2017-Sep-08 16:23N 43°06' E 008°08'511.1
2017-Sep-08 15:56N 43°09' E 008°13'611.3
2017-Sep-08 15:25N 43°13' E 008°20'511.3
2017-Sep-08 15:00N 43°15' E 008°25'611.4
2017-Sep-08 14:30N 43°19' E 008°31'611.4
2017-Sep-08 14:00N 43°22' E 008°38'611.2
2017-Sep-08 13:30N 43°25' E 008°44'611.4
2017-Sep-08 13:00N 43°29' E 008°50'611.5
2017-Sep-08 12:30N 43°32' E 008°57'611.6
2017-Sep-08 12:00N 43°35' E 009°03'611.9
2017-Sep-08 11:30N 43°39' E 009°10'611.6
2017-Sep-08 11:00N 43°43' E 009°16'611.3
2017-Sep-08 10:30N 43°46' E 009°23'611.6
2017-Sep-08 10:00N 43°49' E 009°29'611.4
2017-Sep-08 09:27N 43°53' E 009°36'511.3
2017-Sep-08 09:00N 43°56' E 009°42'611.2
2017-Sep-08 08:30N 43°59' E 009°48'5 9.8
2017-Sep-08 08:00N 44°03' E 009°52'3 6.0
2017-Sep-08 07:30N 44°06' E 009°51'0 0.9
2017-Sep-08 07:00N 44°06' E 009°51'0 0.0
2017-Sep-08 06:30N 44°06' E 009°51'0 0.0
2017-Sep-08 06:00N 44°06' E 009°51'0 0.0
2017-Sep-08 05:30N 44°06' E 009°51'0 0.0
2017-Sep-08 05:00N 44°06' E 009°51'0 0.0
2017-Sep-08 04:30N 44°06' E 009°51'0 0.0
2017-Sep-08 04:00N 44°06' E 009°51'0 0.0
2017-Sep-08 03:30N 44°06' E 009°51'0 0.0
2017-Sep-08 03:00N 44°06' E 009°51'0 0.0
2017-Sep-08 02:30N 44°06' E 009°51'0 0.0
2017-Sep-08 01:57N 44°06' E 009°51'0 0.0
2017-Sep-08 01:27N 44°06' E 009°51'0 0.0
2017-Sep-08 00:57N 44°06' E 009°51'0 0.0
2017-Sep-08 00:30N 44°06' E 009°51'0 0.0
2017-Sep-08 00:00N 44°06' E 009°51'0 0.0
2017-Sep-07 23:30N 44°06' E 009°51'0 0.0
2017-Sep-07 23:00N 44°06' E 009°51'0 0.0
2017-Sep-07 22:27N 44°06' E 009°51'0 0.0
2017-Sep-07 22:00N 44°06' E 009°51'0 0.0
2017-Sep-07 21:30N 44°06' E 009°51'0 0.0
2017-Sep-07 21:00N 44°06' E 009°51'0 0.0
2017-Sep-07 20:27N 44°06' E 009°51'0 0.0
2017-Sep-07 20:00N 44°06' E 009°51'0 0.0
2017-Sep-07 19:30N 44°06' E 009°51'0 0.0
2017-Sep-07 19:00N 44°06' E 009°51'0 0.0
2017-Sep-07 18:30N 44°06' E 009°51'0 0.0
2017-Sep-07 18:00N 44°06' E 009°51'0 0.0
2017-Sep-07 17:30N 44°06' E 009°51'0 0.0
2017-Sep-07 17:00N 44°06' E 009°51'0 0.0
2017-Sep-07 16:30N 44°06' E 009°51'0 0.0
2017-Sep-07 16:00N 44°06' E 009°51'0 0.0
2017-Sep-07 15:30N 44°06' E 009°51'0 0.0
2017-Sep-07 15:00N 44°06' E 009°51'0 0.0
2017-Sep-07 14:30N 44°06' E 009°51'0 0.0
2017-Sep-07 14:00N 44°06' E 009°51'0 0.0
2017-Sep-07 13:30N 44°06' E 009°51'0 0.0
2017-Sep-07 13:00N 44°06' E 009°51'0 0.0
2017-Sep-07 12:30N 44°06' E 009°51'0 0.0
2017-Sep-07 12:00N 44°06' E 009°51'0 0.0
2017-Sep-07 11:30N 44°06' E 009°51'0 0.0
2017-Sep-07 11:00N 44°06' E 009°51'0 0.0
2017-Sep-07 10:30N 44°06' E 009°51'0 0.0
2017-Sep-07 10:00N 44°06' E 009°51'0 0.0
2017-Sep-07 09:24N 44°06' E 009°51'0 0.0
2017-Sep-07 09:00N 44°06' E 009°51'0 0.0
2017-Sep-07 08:30N 44°06' E 009°51'0 0.0
2017-Sep-07 08:00N 44°06' E 009°51'0 0.0
2017-Sep-07 07:30N 44°06' E 009°51'0 0.0
2017-Sep-07 07:00N 44°06' E 009°51'0 0.0
2017-Sep-07 06:30N 44°06' E 009°51'0 0.0
2017-Sep-07 06:00N 44°06' E 009°51'0 0.0
2017-Sep-07 05:30N 44°06' E 009°51'0 0.0
2017-Sep-07 05:00N 44°06' E 009°51'0 0.0
2017-Sep-07 04:30N 44°06' E 009°51'0 0.0
2017-Sep-07 04:00N 44°06' E 009°51'0 0.0
2017-Sep-07 03:27N 44°06' E 009°51'0 0.0
2017-Sep-07 03:00N 44°06' E 009°51'0 0.0
2017-Sep-07 02:30N 44°06' E 009°51'0 0.0
2017-Sep-07 02:00N 44°06' E 009°51'0 0.0
2017-Sep-07 01:30N 44°06' E 009°51'0 0.0
2017-Sep-07 01:00N 44°06' E 009°51'0 0.0
2017-Sep-07 00:30N 44°06' E 009°51'0 0.0
2017-Sep-06 23:57N 44°06' E 009°51'0 0.0
2017-Sep-06 23:30N 44°06' E 009°51'0 0.0
2017-Sep-06 23:00N 44°06' E 009°51'0 0.0
2017-Sep-06 22:30N 44°06' E 009°51'0 0.0
2017-Sep-06 21:57N 44°06' E 009°51'0 0.0
2017-Sep-06 21:30N 44°06' E 009°51'0 0.0
2017-Sep-06 21:00N 44°06' E 009°51'0 0.0
2017-Sep-06 20:27N 44°06' E 009°51'0 0.0
2017-Sep-06 20:00N 44°06' E 009°51'0 0.0
2017-Sep-06 19:27N 44°06' E 009°51'0 0.0
2017-Sep-06 19:00N 44°06' E 009°51'0 0.0
2017-Sep-06 18:30N 44°06' E 009°51'0 0.0
2017-Sep-06 17:57N 44°06' E 009°51'0 0.0
2017-Sep-06 17:30N 44°06' E 009°51'0 0.0
2017-Sep-06 17:00N 44°06' E 009°51'0 0.0
2017-Sep-06 16:30N 44°06' E 009°51'0 0.0
2017-Sep-06 15:54N 44°06' E 009°51'0 0.0
2017-Sep-06 15:27N 44°06' E 009°51'0 0.0
2017-Sep-06 15:00N 44°06' E 009°51'0 0.0
2017-Sep-06 14:30N 44°06' E 009°51'0 0.0
2017-Sep-06 14:00N 44°06' E 009°51'0 0.0
2017-Sep-06 13:30N 44°06' E 009°51'0 0.0
2017-Sep-06 13:00N 44°06' E 009°51'0 0.0
2017-Sep-06 12:30N 44°06' E 009°51'0 0.0
2017-Sep-06 12:00N 44°06' E 009°51'0 0.0
2017-Sep-06 11:30N 44°06' E 009°51'0 0.0
2017-Sep-06 11:00N 44°06' E 009°51'0 0.0
2017-Sep-06 10:27N 44°06' E 009°51'0 0.0
2017-Sep-06 09:54N 44°06' E 009°51'0 0.0
2017-Sep-06 09:30N 44°06' E 009°51'0 0.0
2017-Sep-06 09:00N 44°06' E 009°51'0 0.0
2017-Sep-06 08:30N 44°06' E 009°51'0 0.0
2017-Sep-06 07:57N 44°06' E 009°51'0 0.0
2017-Sep-06 07:30N 44°06' E 009°51'0 0.0
2017-Sep-06 07:00N 44°06' E 009°51'0 0.0
2017-Sep-06 06:27N 44°06' E 009°51'0 0.0
2017-Sep-06 06:00N 44°06' E 009°51'0 0.0
2017-Sep-06 05:30N 44°06' E 009°51'0 0.0
2017-Sep-06 05:00N 44°06' E 009°51'0 0.0
2017-Sep-06 04:30N 44°06' E 009°51'0 0.0
2017-Sep-06 04:00N 44°06' E 009°51'0 0.0
2017-Sep-06 03:30N 44°06' E 009°51'0 0.0
2017-Sep-06 03:00N 44°06' E 009°51'0 0.0
2017-Sep-06 02:30N 44°06' E 009°51'0 0.0
2017-Sep-06 02:00N 44°06' E 009°51'0 0.0
2017-Sep-06 01:30N 44°06' E 009°51'0 0.0
2017-Sep-06 01:00N 44°06' E 009°51'0 0.0
2017-Sep-06 00:30N 44°06' E 009°51'0 0.0
2017-Sep-05 23:57N 44°06' E 009°51'0 0.0
2017-Sep-05 23:27N 44°06' E 009°51'0 0.0
2017-Sep-05 23:00N 44°06' E 009°51'0 0.0
2017-Sep-05 22:30N 44°06' E 009°51'0 0.0
2017-Sep-05 22:00N 44°06' E 009°51'0 0.0
2017-Sep-05 21:30N 44°06' E 009°51'0 0.0
2017-Sep-05 21:00N 44°06' E 009°51'0 0.0
2017-Sep-05 20:30N 44°06' E 009°51'0 0.0
2017-Sep-05 20:00N 44°06' E 009°51'0 0.0
2017-Sep-05 19:30N 44°06' E 009°51'0 0.0
2017-Sep-05 19:00N 44°06' E 009°51'0 0.0
2017-Sep-05 18:24N 44°06' E 009°51'0 0.0
2017-Sep-05 18:00N 44°06' E 009°51'0 0.0
2017-Sep-05 17:30N 44°06' E 009°51'0 0.0
2017-Sep-05 17:00N 44°06' E 009°51'0 0.0
2017-Sep-05 16:27N 44°06' E 009°51'0 0.0
2017-Sep-05 16:00N 44°06' E 009°51'0 0.0
2017-Sep-05 15:30N 44°06' E 009°51'0 0.0
2017-Sep-05 15:00N 44°06' E 009°51'0 0.0
2017-Sep-05 14:27N 44°06' E 009°51'0 0.0
2017-Sep-05 14:00N 44°06' E 009°51'0 0.0
2017-Sep-05 13:30N 44°06' E 009°51'0 0.0
2017-Sep-05 12:57N 44°06' E 009°51'0 0.0
2017-Sep-05 12:30N 44°06' E 009°51'0 0.0
2017-Sep-05 12:00N 44°06' E 009°51'0 0.0
2017-Sep-05 11:30N 44°06' E 009°51'0 0.0
2017-Sep-05 11:00N 44°06' E 009°51'0 0.0
2017-Sep-05 10:30N 44°06' E 009°51'0 0.0
2017-Sep-05 10:00N 44°06' E 009°51'0 0.0
2017-Sep-05 09:30N 44°06' E 009°51'0 0.0
2017-Sep-05 09:00N 44°06' E 009°51'0 0.0
2017-Sep-05 08:30N 44°06' E 009°51'0 0.0
2017-Sep-05 08:00N 44°06' E 009°51'0 0.0
2017-Sep-05 07:27N 44°06' E 009°51'0 0.0
2017-Sep-05 07:00N 44°06' E 009°51'0 0.0
2017-Sep-05 06:30N 44°06' E 009°51'0 0.0
2017-Sep-05 06:00N 44°06' E 009°51'0 0.0
2017-Sep-05 05:30N 44°06' E 009°51'0 0.0
2017-Sep-05 05:00N 44°06' E 009°51'0 0.0
2017-Sep-05 04:30N 44°06' E 009°51'0 0.0
2017-Sep-05 04:00N 44°06' E 009°51'0 0.0
2017-Sep-05 03:30N 44°06' E 009°51'0 0.0
2017-Sep-05 03:00N 44°06' E 009°51'0 0.0
2017-Sep-05 02:30N 44°06' E 009°51'0 0.0
2017-Sep-05 02:00N 44°06' E 009°51'0 0.0
2017-Sep-05 01:30N 44°06' E 009°51'0 0.0
2017-Sep-05 01:00N 44°06' E 009°51'0 0.0
2017-Sep-05 00:30N 44°06' E 009°51'0 0.0
2017-Sep-05 00:00N 44°06' E 009°51'0 0.0
2017-Sep-04 23:30N 44°06' E 009°51'0 0.0
2017-Sep-04 23:00N 44°06' E 009°51'0 0.0
2017-Sep-04 22:30N 44°06' E 009°51'0 0.0
2017-Sep-04 22:00N 44°06' E 009°51'0 0.0
2017-Sep-04 21:30N 44°06' E 009°51'0 0.0
2017-Sep-04 21:00N 44°06' E 009°51'0 0.0
2017-Sep-04 20:30N 44°06' E 009°51'0 0.0
2017-Sep-04 20:00N 44°06' E 009°51'0 0.0
2017-Sep-04 19:30N 44°06' E 009°51'0 0.0
2017-Sep-04 19:00N 44°06' E 009°51'0 0.0
2017-Sep-04 18:30N 44°06' E 009°51'0 0.0
2017-Sep-04 18:00N 44°06' E 009°51'0 0.0
2017-Sep-04 17:30N 44°06' E 009°51'0 0.0
2017-Sep-04 17:00N 44°06' E 009°51'0 0.0
2017-Sep-04 16:30N 44°06' E 009°51'0 0.0
2017-Sep-04 16:00N 44°06' E 009°51'0 0.0
2017-Sep-04 15:30N 44°06' E 009°51'0 0.0
2017-Sep-04 15:00N 44°06' E 009°51'0 0.0
2017-Sep-04 14:30N 44°06' E 009°51'0 0.0
2017-Sep-04 14:00N 44°06' E 009°51'0 0.0
2017-Sep-04 13:30N 44°06' E 009°51'0 0.0
2017-Sep-04 12:54N 44°06' E 009°51'0 0.0
2017-Sep-04 12:30N 44°06' E 009°51'0 0.0
2017-Sep-04 12:00N 44°06' E 009°51'0 0.0
2017-Sep-04 11:30N 44°06' E 009°51'0 0.0
2017-Sep-04 11:00N 44°06' E 009°51'0 0.0
2017-Sep-04 10:30N 44°06' E 009°51'0 0.0
2017-Sep-04 10:00N 44°06' E 009°51'0 0.0
2017-Sep-04 09:30N 44°06' E 009°51'0 0.0
2017-Sep-04 09:00N 44°06' E 009°51'0 0.0
2017-Sep-04 08:30N 44°06' E 009°51'0 0.0
2017-Sep-04 08:00N 44°06' E 009°51'0 0.0
2017-Sep-04 07:27N 44°06' E 009°51'0 0.0
2017-Sep-04 06:57N 44°06' E 009°51'0 0.0
2017-Sep-04 06:30N 44°06' E 009°51'0 0.0
2017-Sep-04 06:00N 44°06' E 009°51'0 0.0
2017-Sep-04 05:30N 44°06' E 009°51'0 0.0
2017-Sep-04 05:00N 44°06' E 009°51'0 0.0
2017-Sep-04 04:30N 44°06' E 009°51'0 0.0
2017-Sep-04 04:00N 44°06' E 009°51'0 0.0
2017-Sep-04 03:30N 44°06' E 009°51'0 0.0
2017-Sep-04 03:00N 44°06' E 009°51'0 0.0
2017-Sep-04 02:30N 44°06' E 009°51'0 0.0
2017-Sep-04 02:00N 44°06' E 009°51'0 0.0
2017-Sep-04 01:30N 44°06' E 009°51'0 0.0
2017-Sep-04 01:00N 44°06' E 009°51'0 0.0
2017-Sep-04 00:30N 44°06' E 009°51'0 0.0
2017-Sep-04 00:00N 44°06' E 009°51'0 0.0
2017-Sep-03 23:30N 44°06' E 009°51'0 0.0
2017-Sep-03 22:54N 44°06' E 009°51'0 0.0
2017-Sep-03 22:30N 44°06' E 009°51'0 0.0
2017-Sep-03 22:00N 44°06' E 009°51'0 0.0
2017-Sep-03 21:30N 44°06' E 009°51'0 0.0
2017-Sep-03 21:00N 44°06' E 009°51'0 0.0
2017-Sep-03 20:27N 44°06' E 009°51'0 0.0
2017-Sep-03 19:57N 44°06' E 009°51'0 0.0
2017-Sep-03 19:30N 44°06' E 009°51'0 0.0
2017-Sep-03 19:00N 44°06' E 009°51'0 0.0
2017-Sep-03 18:30N 44°06' E 009°51'0 0.0
2017-Sep-03 18:00N 44°06' E 009°51'0 0.0
2017-Sep-03 17:30N 44°06' E 009°51'0 0.0
2017-Sep-03 17:00N 44°06' E 009°51'0 0.0
2017-Sep-03 16:30N 44°06' E 009°51'0 0.0
2017-Sep-03 16:00N 44°06' E 009°51'0 0.0
2017-Sep-03 15:30N 44°06' E 009°51'0 0.0
2017-Sep-03 15:00N 44°06' E 009°51'0 0.0
2017-Sep-03 14:00N 44°06' E 009°51'0 0.0
2017-Sep-03 13:30N 44°06' E 009°51'0 0.0
2017-Sep-03 13:00N 44°06' E 009°51'0 0.0
2017-Sep-03 12:27N 44°06' E 009°51'0 0.0
2017-Sep-03 12:00N 44°06' E 009°51'0 0.0
2017-Sep-03 11:27N 44°06' E 009°51'0 0.0
2017-Sep-03 11:00N 44°06' E 009°51'0 0.0
2017-Sep-03 10:30N 44°06' E 009°51'  

Dump ship's entire track history